Time;durP1;ratioP1;P1;durP2;ratioP2;P2;SDS_P1;SDS_P2;PMS_P1;PMS_P2;Temp;Humidity;BMP_temperature;BMP_pressure;BME280_temperature;BME280_humidity;BME280_pressure;Samples;Min_cycle;Max_cycle;Signal;HPM_P1;HPM_P2
2022/02/18 00:00:07;;;;;;;;;;;;;;;5.87;100.00;95649.06;1034406;28;19917;-72
2022/02/18 00:00:40;;;;;;;;;;;;;;;5.88;100.00;95650.66;1027666;28;19943;-71
2022/02/18 00:01:12;;;;;;;;;;;;;;;5.86;100.00;95647.47;1030890;28;20005;-71
2022/02/18 00:01:43;;;;;;;;;;;;;;;5.87;100.00;95646.47;1026810;28;20662;-71
2022/02/18 00:02:16;;;;;;;;;;;;;;;5.88;100.00;95640.22;1027057;28;19922;-71
2022/02/18 00:02:47;;;;;;;;;;;;;;;5.87;100.00;95641.25;1030731;28;20666;-71
2022/02/18 00:03:17;;;;;;;;;;;;;;;5.88;100.00;95639.44;1028900;28;19961;-72
2022/02/18 00:03:47;;;;;;;;;;;;;;;5.96;100.00;95638.28;1031696;28;20580;-71
2022/02/18 00:04:17;;;;;;;;;;;;;;;5.90;100.00;95643.41;1038638;28;19921;-69
2022/02/18 00:04:48;;;;;;;;;;;;;;;5.85;100.00;95643.31;1031010;28;19925;-71
2022/02/18 00:05:18;;;;;;;;;;;;;;;5.88;100.00;95635.03;1034811;28;19917;-71
2022/02/18 00:05:48;;;;;;;;;;;;;;;5.87;100.00;95630.84;1035051;28;19949;-71
2022/02/18 00:06:19;;;;;;;;;;;;;;;5.94;100.00;95629.94;1030660;28;20028;-72
2022/02/18 00:06:49;;;;;;;;;;;;;;;5.94;100.00;95632.53;1029403;28;19925;-71
2022/02/18 00:07:19;;;;;;;;;;;;;;;5.88;100.00;95627.22;1030921;28;19921;-72
2022/02/18 00:07:50;;;;;;;;;;;;;;;5.94;100.00;95628.13;1031013;28;19957;-71
2022/02/18 00:08:20;;;;;;;;;;;;;;;5.96;100.00;95630.47;1034214;28;19921;-70
2022/02/18 00:08:51;;;;;;;;;;;;;;;5.77;100.00;95589.03;1047835;28;20455;-71
2022/02/18 00:09:22;;;;;;;;;;;;;;;6.02;100.00;95616.53;1047329;28;19971;-71
2022/02/18 00:09:52;;;;;;;;;;;;;;;6.02;100.00;95619.13;1042224;28;19948;-70
2022/02/18 00:10:23;;;;;;;;;;;;;;;6.05;100.00;95623.88;1042887;28;19925;-71
2022/02/18 00:10:53;;;;;;;;;;;;;;;6.01;100.00;95615.72;1034658;28;19928;-72
2022/02/18 00:11:23;;;;;;;;;;;;;;;5.97;100.00;95625.06;1030917;28;19929;-71
2022/02/18 00:11:54;;;;;;;;;;;;;;;5.96;100.00;95639.06;1030694;28;19921;-71
2022/02/18 00:12:24;;;;;;;;;;;;;;;5.92;100.00;95627.53;1034642;28;20587;-71
2022/02/18 00:12:54;;;;;;;;;;;;;;;5.91;100.00;95631.16;1043340;28;19915;-71
2022/02/18 00:13:24;;;;;;;;;;;;;;;5.93;100.00;95634.34;1042758;28;19921;-71
2022/02/18 00:13:57;;;;;;;;;;;;;;;5.90;100.00;95634.78;1043089;28;19925;-72
2022/02/18 00:14:27;;;;;;;;;;;;;;;5.87;100.00;95625.63;1043101;28;19966;-72
2022/02/18 00:14:57;;;;;;;;;;;;;;;5.91;100.00;95621.53;1042963;28;19940;-72
2022/02/18 00:15:28;;;;;;;;;;;;;;;5.93;100.00;95630.94;1035141;28;19921;-71
2022/02/18 00:15:58;;;;;;;;;;;;;;;5.95;100.00;95627.09;1038792;28;19933;-71
2022/02/18 00:16:28;;;;;;;;;;;;;;;5.77;100.00;95590.81;1038755;28;19978;-71
2022/02/18 00:16:59;;;;;;;;;;;;;;;5.95;100.00;95605.47;1026754;28;19918;-71
2022/02/18 00:17:29;;;;;;;;;;;;;;;5.98;100.00;95628.44;1030711;28;19921;-71
2022/02/18 00:18:02;;;;;;;;;;;;;;;6.00;100.00;95615.97;1030666;28;19929;-72
2022/02/18 00:18:34;;;;;;;;;;;;;;;5.95;100.00;95615.88;1035515;28;19917;-71
2022/02/18 00:19:04;;;;;;;;;;;;;;;6.01;100.00;95615.72;1042988;28;19982;-71
2022/02/18 00:19:35;;;;;;;;;;;;;;;5.99;100.00;95617.78;1042664;28;20548;-70
2022/02/18 00:20:06;;;;;;;;;;;;;;;5.96;100.00;95617.47;1038310;28;19984;-71
2022/02/18 00:20:37;;;;;;;;;;;;;;;5.95;100.00;95615.88;1038682;28;20422;-70
2022/02/18 00:21:07;;;;;;;;;;;;;;;5.97;100.00;95624.25;1035172;28;19960;-70
2022/02/18 00:21:38;;;;;;;;;;;;;;;5.96;100.00;95620.84;1030810;28;20009;-70
2022/02/18 00:22:08;;;;;;;;;;;;;;;5.97;100.00;95619.03;1030818;28;19922;-71
2022/02/18 00:22:38;;;;;;;;;;;;;;;5.94;100.00;95622.13;1026774;28;19925;-70
2022/02/18 00:23:12;;;;;;;;;;;;;;;5.98;100.00;95618.81;1030790;28;20021;-71
2022/02/18 00:23:43;;;;;;;;;;;;;;;6.01;100.00;95610.53;1030703;28;20541;-71
2022/02/18 00:24:13;;;;;;;;;;;;;;;6.08;100.00;95612.97;1030782;28;19952;-70
2022/02/18 00:24:43;;;;;;;;;;;;;;;6.06;100.00;95613.19;1030551;28;19922;-72
2022/02/18 00:25:14;;;;;;;;;;;;;;;6.03;100.00;95615.47;1029701;28;20446;-70
2022/02/18 00:25:44;;;;;;;;;;;;;;;5.97;100.00;95609.44;1034630;28;19921;-72
2022/02/18 00:26:15;;;;;;;;;;;;;;;5.94;100.00;95609.09;1034912;28;19921;-71
2022/02/18 00:26:45;;;;;;;;;;;;;;;5.98;100.00;95605.78;1043200;28;19921;-71
2022/02/18 00:27:16;;;;;;;;;;;;;;;5.95;100.00;95605.47;1042793;28;19952;-70
2022/02/18 00:27:46;;;;;;;;;;;;;;;5.93;100.00;95607.50;1030837;28;19925;-71
2022/02/18 00:28:17;;;;;;;;;;;;;;;5.87;100.00;95599.59;1033336;28;19948;-70
2022/02/18 00:28:49;;;;;;;;;;;;;;;5.88;100.00;95593.38;1028446;28;19918;-70
2022/02/18 00:29:20;;;;;;;;;;;;;;;5.88;100.00;95595.97;1031661;28;19922;-70
2022/02/18 00:29:50;;;;;;;;;;;;;;;5.89;100.00;95594.16;1038668;28;20569;-70
2022/02/18 00:30:20;;;;;;;;;;;;;;;5.90;100.00;95601.75;1038850;28;20382;-69
2022/02/18 00:30:51;;;;;;;;;;;;;;;5.94;100.00;95601.28;1041718;28;20433;-69
2022/02/18 00:31:21;;;;;;;;;;;;;;;5.98;100.00;95597.19;1042530;28;19921;-70
2022/02/18 00:31:51;;;;;;;;;;;;;;;6.00;100.00;95598.53;1043228;28;19932;-70
2022/02/18 00:32:21;;;;;;;;;;;;;;;5.98;100.00;95605.00;1042653;28;19962;-70
2022/02/18 00:32:52;;;;;;;;;;;;;;;5.94;100.00;95603.91;1041570;28;20336;-70
2022/02/18 00:33:22;;;;;;;;;;;;;;;5.94;100.00;95604.69;1042925;28;19917;-70
2022/02/18 00:33:52;;;;;;;;;;;;;;;5.98;100.00;95594.59;1042771;28;19921;-71
2022/02/18 00:34:25;;;;;;;;;;;;;;;5.97;100.00;95593.81;1042671;28;19971;-69
2022/02/18 00:34:56;;;;;;;;;;;;;;;5.98;100.00;95603.19;1039595;28;20472;-70
2022/02/18 00:35:26;;;;;;;;;;;;;;;5.94;100.00;95596.88;1038318;28;20189;-70
2022/02/18 00:35:57;;;;;;;;;;;;;;;5.99;100.00;95590.94;1035145;28;20007;-70
2022/02/18 00:36:30;;;;;;;;;;;;;;;5.99;100.00;95596.94;1034832;28;20458;-72
2022/02/18 00:37:00;;;;;;;;;;;;;;;6.10;100.00;95600.50;1039406;28;19917;-70
2022/02/18 00:37:31;;;;;;;;;;;;;;;6.12;100.00;95588.03;1035121;28;20327;-70
2022/02/18 00:38:02;;;;;;;;;;;;;;;6.07;100.00;95593.97;1030782;28;19914;-71
2022/02/18 00:38:32;;;;;;;;;;;;;;;6.08;100.00;95592.91;1030801;28;19951;-70
2022/02/18 00:39:02;;;;;;;;;;;;;;;6.14;100.00;95593.78;1035095;28;20426;-71
2022/02/18 00:39:33;;;;;;;;;;;;;;;6.12;100.00;95588.03;1030195;28;19922;-70
2022/02/18 00:40:03;;;;;;;;;;;;;;;5.88;100.00;95553.50;1031171;28;19914;-72
2022/02/18 00:40:34;;;;;;;;;;;;;;;6.07;100.00;95582.72;1026861;28;19918;-72
2022/02/18 00:41:06;;;;;;;;;;;;;;;6.07;100.00;95587.94;1022994;28;19910;-72
2022/02/18 00:41:36;;;;;;;;;;;;;;;6.07;100.00;95595.75;1026609;28;19990;-70
2022/02/18 00:42:07;;;;;;;;;;;;;;;6.07;100.00;95593.16;1026900;28;20408;-72
2022/02/18 00:42:37;;;;;;;;;;;;;;;6.07;100.00;95590.53;1030551;28;20315;-72
2022/02/18 00:43:07;;;;;;;;;;;;;;;6.05;100.00;95582.97;1035251;28;19925;-72
2022/02/18 00:43:38;;;;;;;;;;;;;;;6.05;100.00;95595.22;1030417;28;19917;-71
2022/02/18 00:44:09;;;;;;;;;;;;;;;6.20;100.00;95587.63;1035016;28;19929;-71
2022/02/18 00:44:43;;;;;;;;;;;;;;;6.21;100.00;95588.44;1034626;28;19928;-71
2022/02/18 00:45:13;;;;;;;;;;;;;;;6.14;100.00;95593.78;1035353;28;19972;-71
2022/02/18 00:45:44;;;;;;;;;;;;;;;6.13;100.00;95594.81;1038657;28;19928;-71
2022/02/18 00:46:14;;;;;;;;;;;;;;;6.13;100.00;95587.78;1035871;28;19924;-71
2022/02/18 00:46:45;;;;;;;;;;;;;;;6.14;100.00;95605.00;1042847;28;19920;-69
2022/02/18 00:47:15;;;;;;;;;;;;;;;6.14;100.00;95604.22;1037322;28;19921;-68
2022/02/18 00:47:46;;;;;;;;;;;;;;;6.13;100.00;95607.81;1034276;28;19993;-70
2022/02/18 00:48:17;;;;;;;;;;;;;;;6.13;100.00;95607.81;1039083;28;19925;-72
2022/02/18 00:48:47;;;;;;;;;;;;;;;6.07;100.00;95606.16;1034750;28;19992;-72
2022/02/18 00:49:18;;;;;;;;;;;;;;;6.07;100.00;95603.56;1034734;28;19968;-71
2022/02/18 00:49:48;;;;;;;;;;;;;;;6.05;100.00;95610.84;1036720;28;20398;-72
2022/02/18 00:50:19;;;;;;;;;;;;;;;6.03;100.00;95612.88;1034521;28;19922;-72
2022/02/18 00:50:49;;;;;;;;;;;;;;;5.98;100.00;95610.22;1022480;29;20066;-72
2022/02/18 00:51:25;;;;;;;;;;;;;;;5.94;100.00;95617.72;1023877;28;20430;-73
2022/02/18 00:51:58;;;;;;;;;;;;;;;5.95;100.00;95611.47;1027237;28;19964;-72
2022/02/18 00:52:29;;;;;;;;;;;;;;;5.96;100.00;95612.25;1028909;28;19914;-70
2022/02/18 00:52:59;;;;;;;;;;;;;;;5.95;100.00;95614.06;1035103;28;19914;-70
2022/02/18 00:53:29;;;;;;;;;;;;;;;5.95;100.00;95618.50;1038969;28;19920;-72
2022/02/18 00:54:00;;;;;;;;;;;;;;;5.90;100.00;95612.16;1030609;28;19969;-71
2022/02/18 00:54:30;;;;;;;;;;;;;;;5.87;100.00;95617.84;1026637;28;19921;-72
2022/02/18 00:55:00;;;;;;;;;;;;;;;5.79;100.00;95607.78;1022667;29;19922;-72
2022/02/18 00:55:31;;;;;;;;;;;;;;;5.61;100.00;95585.38;1026616;28;19914;-71
2022/02/18 00:56:01;;;;;;;;;;;;;;;5.94;100.00;95615.09;1038753;28;19920;-71
2022/02/18 00:56:32;;;;;;;;;;;;;;;5.98;100.00;95611.00;1038991;28;19913;-71
2022/02/18 00:57:05;;;;;;;;;;;;;;;5.96;100.00;95604.44;1042892;28;19947;-71
2022/02/18 00:57:36;;;;;;;;;;;;;;;6.01;100.00;95605.31;1034795;28;20486;-71
2022/02/18 00:58:06;;;;;;;;;;;;;;;5.97;100.00;95608.59;1030073;28;19950;-71
2022/02/18 00:58:37;;;;;;;;;;;;;;;5.94;100.00;95606.50;1022965;28;20154;-71
2022/02/18 00:59:07;;;;;;;;;;;;;;;5.90;100.00;95612.16;1027166;28;19948;-71
2022/02/18 00:59:38;;;;;;;;;;;;;;;5.85;100.00;95613.88;1029957;28;19918;-71
2022/02/18 01:00:08;;;;;;;;;;;;;;;5.85;100.00;95611.28;1030456;28;19918;-72
2022/02/18 01:00:39;;;;;;;;;;;;;;;5.85;100.00;95612.06;1034807;28;19980;-71
2022/02/18 01:01:09;;;;;;;;;;;;;;;5.86;100.00;95608.41;1034897;28;20450;-71
2022/02/18 01:01:40;;;;;;;;;;;;;;;5.81;100.00;95605.75;1030384;28;20358;-71
2022/02/18 01:02:10;;;;;;;;;;;;;;;5.75;100.00;95604.06;1030900;28;20316;-71
2022/02/18 01:02:40;;;;;;;;;;;;;;;5.71;100.00;95610.00;1030284;28;19918;-71
2022/02/18 01:03:10;;;;;;;;;;;;;;;5.71;100.00;95616.00;1026610;28;20033;-72
2022/02/18 01:03:41;;;;;;;;;;;;;;;5.72;100.00;95612.34;1034813;28;19926;-71
2022/02/18 01:04:11;;;;;;;;;;;;;;;5.83;100.00;95608.88;1026599;28;19913;-71
2022/02/18 01:04:41;;;;;;;;;;;;;;;5.85;100.00;95612.06;1030697;28;20505;-70
2022/02/18 01:05:12;;;;;;;;;;;;;;;5.79;100.00;95614.81;1030420;28;19914;-72
2022/02/18 01:05:42;;;;;;;;;;;;;;;5.82;100.00;95612.53;1030598;28;19918;-72
2022/02/18 01:06:13;;;;;;;;;;;;;;;5.85;100.00;95612.06;1035012;28;19914;-72
2022/02/18 01:06:43;;;;;;;;;;;;;;;5.80;100.00;95614.59;1038395;28;19936;-72
2022/02/18 01:07:13;;;;;;;;;;;;;;;5.82;100.00;95617.72;1034607;28;19917;-72
2022/02/18 01:07:44;;;;;;;;;;;;;;;5.93;100.00;95602.31;1030801;28;19914;-72
2022/02/18 01:08:14;;;;;;;;;;;;;;;5.82;100.00;95607.31;1034467;28;20028;-72
2022/02/18 01:08:44;;;;;;;;;;;;;;;5.77;100.00;95612.47;1034504;28;19968;-71
2022/02/18 01:09:14;;;;;;;;;;;;;;;5.74;100.00;95615.53;1038663;28;20440;-71
2022/02/18 01:09:45;;;;;;;;;;;;;;;5.83;100.00;95602.91;1042171;28;20422;-71
2022/02/18 01:10:16;;;;;;;;;;;;;;;5.93;100.00;95607.50;1042733;28;19920;-71
2022/02/18 01:10:46;;;;;;;;;;;;;;;5.82;100.00;95603.94;1046672;28;19927;-71
2022/02/18 01:11:16;;;;;;;;;;;;;;;5.82;100.00;95614.34;1043408;28;19939;-72
2022/02/18 01:11:47;;;;;;;;;;;;;;;5.78;100.00;95611.41;1035099;28;19957;-71
2022/02/18 01:12:17;;;;;;;;;;;;;;;5.74;100.00;95615.53;1034908;28;19919;-72
2022/02/18 01:12:47;;;;;;;;;;;;;;;5.76;100.00;95618.66;1034919;28;19921;-72
2022/02/18 01:13:18;;;;;;;;;;;;;;;5.78;100.00;95615.84;1034879;28;19914;-71
2022/02/18 01:13:48;;;;;;;;;;;;;;;5.75;100.00;95617.09;1043156;28;20347;-71
2022/02/18 01:14:24;;;;;;;;;;;;;;;5.79;100.00;95613.00;1043303;28;20035;-71
2022/02/18 01:14:58;;;;;;;;;;;;;;;5.77;100.00;95609.03;1038733;28;19913;-71
2022/02/18 01:15:28;;;;;;;;;;;;;;;5.82;100.00;95606.53;1039006;28;19951;-71
2022/02/18 01:15:58;;;;;;;;;;;;;;;5.80;100.00;95613.78;1034651;28;19914;-71
2022/02/18 01:16:29;;;;;;;;;;;;;;;5.88;100.00;95606.38;1035050;28;20556;-69
2022/02/18 01:16:59;;;;;;;;;;;;;;;5.89;100.00;95605.34;1030538;28;19914;-71
2022/02/18 01:17:29;;;;;;;;;;;;;;;5.87;100.00;95604.03;1030591;28;19921;-72
2022/02/18 01:18:04;;;;;;;;;;;;;;;5.81;100.00;95605.75;1034579;28;19913;-71
2022/02/18 01:18:34;;;;;;;;;;;;;;;5.79;100.00;95609.59;1036000;28;20165;-72
2022/02/18 01:19:04;;;;;;;;;;;;;;;5.87;100.00;95604.81;1039008;28;19921;-72
2022/02/18 01:19:35;;;;;;;;;;;;;;;5.85;100.00;95600.84;1038423;28;19939;-71
2022/02/18 01:20:05;;;;;;;;;;;;;;;5.81;100.00;95597.94;1034132;28;20302;-71
2022/02/18 01:20:35;;;;;;;;;;;;;;;5.89;100.00;95607.94;1034691;28;20015;-71
2022/02/18 01:21:06;;;;;;;;;;;;;;;5.88;100.00;95597.78;1038751;28;19917;-72
2022/02/18 01:21:36;;;;;;;;;;;;;;;5.86;100.00;95612.84;1030309;28;19913;-72
2022/02/18 01:22:07;;;;;;;;;;;;;;;5.94;100.00;95604.69;1037270;28;19921;-71
2022/02/18 01:22:37;;;;;;;;;;;;;;;6.07;100.00;95593.97;1038918;28;19917;-71
2022/02/18 01:23:07;;;;;;;;;;;;;;;6.08;100.00;95586.94;1034507;28;20317;-72
2022/02/18 01:23:37;;;;;;;;;;;;;;;6.09;100.00;95583.28;1038440;28;19920;-71
2022/02/18 01:24:08;;;;;;;;;;;;;;;6.11;100.00;95586.47;1030791;28;20029;-71
2022/02/18 01:24:38;;;;;;;;;;;;;;;6.08;100.00;95590.31;1030457;28;19928;-69
2022/02/18 01:25:09;;;;;;;;;;;;;;;6.05;100.00;95588.19;1030802;28;19972;-71
2022/02/18 01:25:39;;;;;;;;;;;;;;;6.01;100.00;95588.91;1022208;28;19989;-70
2022/02/18 01:26:09;;;;;;;;;;;;;;;6.09;100.00;95585.88;1026534;28;19918;-71
2022/02/18 01:26:40;;;;;;;;;;;;;;;6.11;100.00;95584.63;1026589;28;19918;-71
2022/02/18 01:27:10;;;;;;;;;;;;;;;6.08;100.00;95586.94;1026394;28;19914;-72
2022/02/18 01:27:41;;;;;;;;;;;;;;;6.05;100.00;95592.59;1030235;28;19952;-71
2022/02/18 01:28:11;;;;;;;;;;;;;;;6.05;100.00;95600.41;1034777;28;19924;-71
2022/02/18 01:28:41;;;;;;;;;;;;;;;6.00;100.00;95592.50;1031348;28;19928;-71
2022/02/18 01:29:12;;;;;;;;;;;;;;;6.02;100.00;95593.09;1039023;28;20000;-71
2022/02/18 01:29:42;;;;;;;;;;;;;;;6.06;100.00;95591.56;1037766;28;19924;-72
2022/02/18 01:30:12;;;;;;;;;;;;;;;6.07;100.00;95586.16;1038517;28;20700;-71
2022/02/18 01:30:43;;;;;;;;;;;;;;;6.10;100.00;95596.09;1029741;28;20312;-70
2022/02/18 01:31:13;;;;;;;;;;;;;;;6.16;100.00;95589.13;1029732;28;19952;-71
2022/02/18 01:31:44;;;;;;;;;;;;;;;6.24;100.00;95583.53;1026359;28;19925;-71
2022/02/18 01:32:15;;;;;;;;;;;;;;;6.24;100.00;95591.34;1026840;28;20439;-72
2022/02/18 01:32:45;;;;;;;;;;;;;;;6.21;100.00;95594.41;1028967;28;20405;-70
2022/02/18 01:33:15;;;;;;;;;;;;;;;6.25;100.00;95594.72;1026695;28;20308;-72
2022/02/18 01:33:46;;;;;;;;;;;;;;;6.26;100.00;95581.44;1022165;28;19954;-71
2022/02/18 01:34:16;;;;;;;;;;;;;;;6.23;100.00;95587.13;1030584;28;19926;-72
2022/02/18 01:34:46;;;;;;;;;;;;;;;6.25;100.00;95592.13;1030827;28;19922;-71
2022/02/18 01:35:17;;;;;;;;;;;;;;;6.03;100.00;95553.75;1030668;28;19981;-72
2022/02/18 01:35:54;;;;;;;;;;;;;;;6.19;100.00;95586.03;1034457;28;20045;-72
2022/02/18 01:36:24;;;;;;;;;;;;;;;6.19;100.00;95598.28;1040027;28;20793;-72
2022/02/18 01:36:55;;;;;;;;;;;;;;;6.24;100.00;95604.38;1038881;28;19921;-72
2022/02/18 01:37:25;;;;;;;;;;;;;;;6.25;100.00;95594.72;1035746;28;19921;-71
2022/02/18 01:37:55;;;;;;;;;;;;;;;6.28;100.00;95592.44;1034663;28;20008;-72
2022/02/18 01:38:26;;;;;;;;;;;;;;;6.24;100.00;95593.94;1034779;28;19921;-72
2022/02/18 01:38:56;;;;;;;;;;;;;;;6.24;100.00;95593.94;1030901;28;19918;-72
2022/02/18 01:39:26;;;;;;;;;;;;;;;6.18;100.00;95589.69;1030307;28;20359;-71
2022/02/18 01:39:57;;;;;;;;;;;;;;;6.14;100.00;95594.59;1034526;28;19917;-71
2022/02/18 01:40:27;;;;;;;;;;;;;;;6.16;100.00;95602.16;1035285;28;20003;-71
2022/02/18 01:40:57;;;;;;;;;;;;;;;6.19;100.00;95598.28;1030514;28;19917;-70
2022/02/18 01:41:28;;;;;;;;;;;;;;;6.12;100.00;95590.63;1035098;28;19945;-71
2022/02/18 01:41:58;;;;;;;;;;;;;;;6.09;100.00;95597.09;1029223;28;19918;-71
2022/02/18 01:42:28;;;;;;;;;;;;;;;6.09;100.00;95596.31;1028753;28;19945;-72
2022/02/18 01:42:59;;;;;;;;;;;;;;;6.12;100.00;95585.41;1032443;28;19925;-71
2022/02/18 01:43:29;;;;;;;;;;;;;;;6.13;100.00;95595.59;1032493;28;19974;-71
2022/02/18 01:44:00;;;;;;;;;;;;;;;6.09;100.00;95598.91;1031952;28;19922;-71
2022/02/18 01:44:43;;;;;;;;;;;;;;;6.08;100.00;95586.94;1028367;28;19923;-71
2022/02/18 01:45:13;;;;;;;;;;;;;;;6.06;100.00;95584.53;1029860;28;19953;-71
2022/02/18 01:45:44;;;;;;;;;;;;;;;6.03;100.00;95582.41;1033347;28;19920;-71
2022/02/18 01:46:14;;;;;;;;;;;;;;;6.05;100.00;95579.59;1039129;28;19921;-71
2022/02/18 01:46:45;;;;;;;;;;;;;;;6.04;100.00;95580.63;1040404;28;20754;-71
2022/02/18 01:47:16;;;;;;;;;;;;;;;6.06;100.00;95581.16;1036839;28;19928;-71
2022/02/18 01:47:46;;;;;;;;;;;;;;;6.09;100.00;95575.47;1032635;28;20252;-71
2022/02/18 01:48:17;;;;;;;;;;;;;;;6.12;100.00;95580.22;1034500;28;19925;-71
2022/02/18 01:48:47;;;;;;;;;;;;;;;6.12;100.00;95575.00;1034765;28;19979;-69
2022/02/18 01:49:18;;;;;;;;;;;;;;;6.08;100.00;95582.50;1037599;28;19917;-71
2022/02/18 01:49:48;;;;;;;;;;;;;;;6.16;100.00;95575.31;1035418;28;19929;-69
2022/02/18 01:50:19;;;;;;;;;;;;;;;6.16;100.00;95581.31;1026210;28;19922;-72
2022/02/18 01:50:49;;;;;;;;;;;;;;;6.17;100.00;95582.91;1030386;28;19949;-72
2022/02/18 01:51:20;;;;;;;;;;;;;;;6.21;100.00;95583.22;1030698;28;19914;-71
2022/02/18 01:51:50;;;;;;;;;;;;;;;6.24;100.00;95585.34;1030677;28;20013;-72
2022/02/18 01:52:21;;;;;;;;;;;;;;;6.28;100.00;95584.63;1034629;28;19997;-70
2022/02/18 01:52:52;;;;;;;;;;;;;;;6.27;100.00;95583.06;1034349;28;19988;-68
2022/02/18 01:53:22;;;;;;;;;;;;;;;6.21;100.00;95578.78;1038581;28;19923;-71
2022/02/18 01:53:53;;;;;;;;;;;;;;;6.23;100.00;95581.94;1039007;28;19913;-71
2022/02/18 01:54:23;;;;;;;;;;;;;;;6.28;100.00;95586.44;1039045;28;20365;-72
2022/02/18 01:54:53;;;;;;;;;;;;;;;6.27;100.00;95582.25;1038136;28;19921;-71
2022/02/18 01:55:24;;;;;;;;;;;;;;;6.24;100.00;95577.53;1043288;28;19913;-72
2022/02/18 01:55:54;;;;;;;;;;;;;;;6.22;100.00;95590.00;1043596;28;19971;-71
2022/02/18 01:56:25;;;;;;;;;;;;;;;6.26;100.00;95586.66;1039302;28;20440;-71
2022/02/18 01:56:55;;;;;;;;;;;;;;;6.26;100.00;95585.88;1039777;28;19921;-71
2022/02/18 01:57:25;;;;;;;;;;;;;;;6.18;100.00;95588.91;1039250;28;20440;-71
2022/02/18 01:57:56;;;;;;;;;;;;;;;6.20;100.00;95586.81;1035357;28;19910;-72
2022/02/18 01:58:27;;;;;;;;;;;;;;;6.20;100.00;95586.81;1034733;28;19933;-73
2022/02/18 01:59:00;;;;;;;;;;;;;;;6.19;100.00;95580.06;1035083;28;19945;-72
2022/02/18 01:59:30;;;;;;;;;;;;;;;6.16;100.00;95581.31;1035768;28;19921;-71
2022/02/18 02:00:00;;;;;;;;;;;;;;;6.16;100.00;95590.94;1039515;28;19921;-72
2022/02/18 02:00:31;;;;;;;;;;;;;;;6.20;100.00;95587.63;1039511;28;20288;-72
2022/02/18 02:01:02;;;;;;;;;;;;;;;6.16;100.00;95581.31;1035815;28;20441;-72
2022/02/18 02:01:32;;;;;;;;;;;;;;;6.19;100.00;95583.44;1036871;28;19913;-73
2022/02/18 02:02:03;;;;;;;;;;;;;;;6.27;100.00;95583.06;1039809;28;19917;-71
2022/02/18 02:02:33;;;;;;;;;;;;;;;6.27;100.00;95580.44;1035495;28;19913;-70
2022/02/18 02:03:03;;;;;;;;;;;;;;;6.25;100.00;95574.69;1035241;28;19945;-72
2022/02/18 02:03:34;;;;;;;;;;;;;;;6.24;100.00;95588.75;1035721;28;19953;-70
2022/02/18 02:04:05;;;;;;;;;;;;;;;6.19;100.00;95573.03;1035575;28;19932;-71
2022/02/18 02:04:36;;;;;;;;;;;;;;;6.19;100.00;95583.44;1040391;28;20246;-71
2022/02/18 02:05:06;;;;;;;;;;;;;;;6.21;100.00;95581.41;1040451;28;20588;-71
2022/02/18 02:05:40;;;;;;;;;;;;;;;6.20;100.00;95581.63;1044446;28;19952;-72
2022/02/18 02:06:13;;;;;;;;;;;;;;;6.16;100.00;95580.53;1040715;28;19952;-71
2022/02/18 02:06:43;;;;;;;;;;;;;;;6.13;100.00;95587.00;1036097;28;19916;-71
2022/02/18 02:07:14;;;;;;;;;;;;;;;6.07;100.00;95588.75;1028121;28;19925;-72
2022/02/18 02:07:46;;;;;;;;;;;;;;;6.05;100.00;95576.97;1036436;28;19917;-72
2022/02/18 02:08:17;;;;;;;;;;;;;;;5.98;100.00;95586.78;1032292;28;19929;-71
2022/02/18 02:08:48;;;;;;;;;;;;;;;5.98;100.00;95584.16;1036575;28;19967;-71
2022/02/18 02:09:18;;;;;;;;;;;;;;;6.03;100.00;95581.63;1032844;28;19925;-71
2022/02/18 02:09:48;;;;;;;;;;;;;;;5.98;100.00;95595.38;1031439;28;19921;-71
2022/02/18 02:10:18;;;;;;;;;;;;;;;6.06;100.00;95589.75;1032014;28;19918;-70
2022/02/18 02:10:49;;;;;;;;;;;;;;;6.07;100.00;95587.94;1028011;28;19922;-71
2022/02/18 02:11:20;;;;;;;;;;;;;;;6.02;100.00;95578.25;1027934;28;19917;-71
2022/02/18 02:11:50;;;;;;;;;;;;;;;6.00;100.00;95579.50;1032671;28;19961;-72
2022/02/18 02:12:20;;;;;;;;;;;;;;;6.04;100.00;95583.22;1036192;28;19920;-70
2022/02/18 02:12:52;;;;;;;;;;;;;;;6.05;100.00;95563.97;1040773;28;19977;-71
2022/02/18 02:13:26;;;;;;;;;;;;;;;6.12;100.00;95567.19;1043239;28;19952;-70
2022/02/18 02:13:58;;;;;;;;;;;;;;;6.15;100.00;95561.50;1036940;28;19921;-71
2022/02/18 02:14:28;;;;;;;;;;;;;;;6.25;100.00;95566.84;1037307;28;20681;-71
2022/02/18 02:14:59;;;;;;;;;;;;;;;6.27;100.00;95567.41;1031916;28;19909;-70
2022/02/18 02:15:29;;;;;;;;;;;;;;;6.27;100.00;95561.41;1032137;28;19916;-71
2022/02/18 02:16:02;;;;;;;;;;;;;;;6.23;100.00;95562.91;1028400;28;19910;-69
2022/02/18 02:16:33;;;;;;;;;;;;;;;6.23;100.00;95555.09;1033068;28;19906;-71
2022/02/18 02:17:03;;;;;;;;;;;;;;;6.26;100.00;95555.41;1036352;28;19906;-71
2022/02/18 02:17:33;;;;;;;;;;;;;;;6.26;100.00;95552.78;1032538;28;19918;-71
2022/02/18 02:18:04;;;;;;;;;;;;;;;6.29;100.00;95556.75;1032107;28;19914;-71
2022/02/18 02:18:34;;;;;;;;;;;;;;;6.26;100.00;95544.19;1032315;28;20008;-71
2022/02/18 02:19:04;;;;;;;;;;;;;;;6.27;100.00;95557.00;1028063;28;20537;-71
2022/02/18 02:19:35;;;;;;;;;;;;;;;6.27;100.00;95541.38;1027372;28;19914;-70
2022/02/18 02:20:05;;;;;;;;;;;;;;;6.34;100.00;95549.00;1029342;28;19926;-72
2022/02/18 02:20:36;;;;;;;;;;;;;;;6.35;100.00;95540.94;1036165;28;19953;-72
2022/02/18 02:21:06;;;;;;;;;;;;;;;6.34;100.00;95549.78;1044630;28;19905;-71
2022/02/18 02:21:37;;;;;;;;;;;;;;;6.32;100.00;95535.41;1040086;28;19913;-72
2022/02/18 02:22:07;;;;;;;;;;;;;;;6.34;100.00;95541.97;1032127;28;19972;-72
2022/02/18 02:22:38;;;;;;;;;;;;;;;6.31;100.00;95545.06;1032337;28;19910;-72
2022/02/18 02:23:09;;;;;;;;;;;;;;;6.30;100.00;95546.06;1024286;28;20285;-72
2022/02/18 02:23:39;;;;;;;;;;;;;;;6.32;100.00;95548.44;1026352;28;19906;-72
2022/02/18 02:24:09;;;;;;;;;;;;;;;6.36;100.00;95554.75;1026109;28;19917;-71
2022/02/18 02:24:39;;;;;;;;;;;;;;;6.41;100.00;95557.44;1028048;28;20368;-71
2022/02/18 02:25:10;;;;;;;;;;;;;;;6.39;100.00;95554.28;1028482;28;19953;-71
2022/02/18 02:25:40;;;;;;;;;;;;;;;6.38;100.00;95557.91;1019971;29;19907;-71
2022/02/18 02:26:11;;;;;;;;;;;;;;;6.34;100.00;95549.00;1032215;28;20167;-71
2022/02/18 02:26:41;;;;;;;;;;;;;;;6.41;100.00;95551.44;1036610;28;19906;-72
2022/02/18 02:27:12;;;;;;;;;;;;;;;6.45;100.00;95557.75;1036129;28;19913;-72
2022/02/18 02:27:42;;;;;;;;;;;;;;;6.48;100.00;95558.06;1031901;28;19932;-71
2022/02/18 02:28:12;;;;;;;;;;;;;;;6.51;100.00;95556.78;1032521;28;19914;-71
2022/02/18 02:28:43;;;;;;;;;;;;;;;6.49;100.00;95564.06;1036062;28;20038;-71
2022/02/18 02:29:13;;;;;;;;;;;;;;;6.43;100.00;95554.59;1040341;28;19910;-71
2022/02/18 02:29:43;;;;;;;;;;;;;;;6.47;100.00;95555.69;1043588;28;19909;-71
2022/02/18 02:30:15;;;;;;;;;;;;;;;6.45;100.00;95552.53;1040080;28;19901;-72
2022/02/18 02:30:45;;;;;;;;;;;;;;;6.43;100.00;95557.97;1036096;28;20482;-71
2022/02/18 02:31:15;;;;;;;;;;;;;;;6.41;100.00;95552.22;1032108;28;19925;-71
2022/02/18 02:31:46;;;;;;;;;;;;;;;6.43;100.00;95557.19;1032176;28;19921;-72
2022/02/18 02:32:16;;;;;;;;;;;;;;;6.40;100.00;95549.84;1030445;28;20152;-71
2022/02/18 02:32:46;;;;;;;;;;;;;;;6.37;100.00;95559.75;1026563;28;20001;-71
2022/02/18 02:33:17;;;;;;;;;;;;;;;6.34;100.00;95551.63;1035834;28;20327;-72
2022/02/18 02:33:47;;;;;;;;;;;;;;;6.36;100.00;95558.16;1028183;28;19914;-71
2022/02/18 02:34:18;;;;;;;;;;;;;;;6.35;100.00;95559.19;1031743;28;19914;-72
2022/02/18 02:34:48;;;;;;;;;;;;;;;6.41;100.00;95547.03;1031905;28;19914;-72
2022/02/18 02:35:18;;;;;;;;;;;;;;;6.47;100.00;95547.84;1032279;28;19913;-71
2022/02/18 02:35:49;;;;;;;;;;;;;;;6.44;100.00;95548.34;1036010;28;19917;-71
2022/02/18 02:36:19;;;;;;;;;;;;;;;6.44;100.00;95550.94;1040363;28;19924;-72
2022/02/18 02:36:50;;;;;;;;;;;;;;;6.59;100.00;95546.72;1040331;28;19952;-71
2022/02/18 02:37:22;;;;;;;;;;;;;;;6.55;100.00;95547.44;1034205;28;20005;-71
2022/02/18 02:37:52;;;;;;;;;;;;;;;6.50;100.00;95549.97;1036487;28;19910;-72
2022/02/18 02:38:23;;;;;;;;;;;;;;;6.54;100.00;95556.31;1031889;28;20647;-71
2022/02/18 02:38:53;;;;;;;;;;;;;;;6.52;100.00;95559.16;1032187;28;20423;-71
2022/02/18 02:39:23;;;;;;;;;;;;;;;6.49;100.00;95554.41;1032212;28;19913;-71
2022/02/18 02:39:54;;;;;;;;;;;;;;;6.47;100.00;95546.06;1035478;28;20390;-71